sensor_id;sensor_type;location;lat;lon;timestamp;P1;durP1;ratioP1;P2;durP2;ratioP2
14470;SDS011;7321;50.802;4.336;2022-08-04T00:01:30;6.00;;;3.63;;
14470;SDS011;7321;50.802;4.336;2022-08-04T00:04:01;7.50;;;3.30;;
14470;SDS011;7321;50.802;4.336;2022-08-04T00:07:15;7.18;;;3.50;;
14470;SDS011;7321;50.802;4.336;2022-08-04T00:09:51;6.65;;;3.45;;
14470;SDS011;7321;50.802;4.336;2022-08-04T00:12:30;10.43;;;4.13;;
14470;SDS011;7321;50.802;4.336;2022-08-04T00:14:58;6.05;;;3.83;;
14470;SDS011;7321;50.802;4.336;2022-08-04T00:17:28;6.78;;;4.10;;
14470;SDS011;7321;50.802;4.336;2022-08-04T00:19:58;9.07;;;3.60;;
14470;SDS011;7321;50.802;4.336;2022-08-04T00:22:26;6.88;;;3.95;;
14470;SDS011;7321;50.802;4.336;2022-08-04T00:24:57;9.27;;;3.90;;
14470;SDS011;7321;50.802;4.336;2022-08-04T00:27:29;5.68;;;3.92;;
14470;SDS011;7321;50.802;4.336;2022-08-04T00:29:56;6.80;;;4.05;;
14470;SDS011;7321;50.802;4.336;2022-08-04T00:32:23;6.93;;;3.95;;
14470;SDS011;7321;50.802;4.336;2022-08-04T00:34:52;9.98;;;4.13;;
14470;SDS011;7321;50.802;4.336;2022-08-04T00:37:25;5.28;;;3.72;;
14470;SDS011;7321;50.802;4.336;2022-08-04T00:39:54;9.48;;;4.07;;
14470;SDS011;7321;50.802;4.336;2022-08-04T00:48:09;8.20;;;3.78;;
14470;SDS011;7321;50.802;4.336;2022-08-04T00:50:49;6.95;;;4.15;;
14470;SDS011;7321;50.802;4.336;2022-08-04T00:53:30;5.82;;;4.00;;
14470;SDS011;7321;50.802;4.336;2022-08-04T01:04:46;8.27;;;3.88;;
14470;SDS011;7321;50.802;4.336;2022-08-04T01:07:36;8.85;;;4.22;;
14470;SDS011;7321;50.802;4.336;2022-08-04T01:16:21;8.65;;;4.32;;
14470;SDS011;7321;50.802;4.336;2022-08-04T01:19:00;7.45;;;3.78;;
14470;SDS011;7321;50.802;4.336;2022-08-04T01:24:28;7.22;;;4.03;;
14470;SDS011;7321;50.802;4.336;2022-08-04T01:27:26;5.45;;;4.07;;
14470;SDS011;7321;50.802;4.336;2022-08-04T01:30:05;7.20;;;4.18;;
14470;SDS011;7321;50.802;4.336;2022-08-04T01:32:31;8.40;;;4.60;;
14470;SDS011;7321;50.802;4.336;2022-08-04T01:35:08;5.88;;;4.18;;
14470;SDS011;7321;50.802;4.336;2022-08-04T01:40:29;7.03;;;4.43;;
14470;SDS011;7321;50.802;4.336;2022-08-04T01:42:57;9.05;;;4.53;;
14470;SDS011;7321;50.802;4.336;2022-08-04T01:45:24;7.53;;;4.30;;
14470;SDS011;7321;50.802;4.336;2022-08-04T01:47:52;6.07;;;4.57;;
14470;SDS011;7321;50.802;4.336;2022-08-04T01:50:19;7.70;;;4.60;;
14470;SDS011;7321;50.802;4.336;2022-08-04T01:52:51;10.15;;;4.45;;
14470;SDS011;7321;50.802;4.336;2022-08-04T01:55:18;9.10;;;4.22;;
14470;SDS011;7321;50.802;4.336;2022-08-04T01:57:46;7.65;;;4.40;;
14470;SDS011;7321;50.802;4.336;2022-08-04T02:00:15;7.90;;;4.55;;
14470;SDS011;7321;50.802;4.336;2022-08-04T02:02:44;8.77;;;4.53;;
14470;SDS011;7321;50.802;4.336;2022-08-04T02:05:10;5.72;;;4.28;;
14470;SDS011;7321;50.802;4.336;2022-08-04T02:15:57;7.82;;;4.50;;
14470;SDS011;7321;50.802;4.336;2022-08-04T02:18:30;8.50;;;4.30;;
14470;SDS011;7321;50.802;4.336;2022-08-04T02:21:02;8.63;;;4.10;;
14470;SDS011;7321;50.802;4.336;2022-08-04T02:26:03;6.43;;;4.38;;
14470;SDS011;7321;50.802;4.336;2022-08-04T02:28:35;6.93;;;4.47;;
14470;SDS011;7321;50.802;4.336;2022-08-04T02:33:59;8.32;;;4.05;;
14470;SDS011;7321;50.802;4.336;2022-08-04T02:36:29;9.93;;;4.82;;
14470;SDS011;7321;50.802;4.336;2022-08-04T02:38:59;7.63;;;4.80;;
14470;SDS011;7321;50.802;4.336;2022-08-04T02:41:27;8.27;;;4.32;;
14470;SDS011;7321;50.802;4.336;2022-08-04T02:43:57;7.55;;;4.68;;
14470;SDS011;7321;50.802;4.336;2022-08-04T02:46:25;10.68;;;4.40;;
14470;SDS011;7321;50.802;4.336;2022-08-04T02:48:52;9.77;;;4.60;;
14470;SDS011;7321;50.802;4.336;2022-08-04T02:51:23;9.10;;;4.50;;
14470;SDS011;7321;50.802;4.336;2022-08-04T02:53:59;6.88;;;4.38;;
14470;SDS011;7321;50.802;4.336;2022-08-04T02:56:29;7.07;;;4.70;;
14470;SDS011;7321;50.802;4.336;2022-08-04T02:58:59;8.77;;;4.78;;
14470;SDS011;7321;50.802;4.336;2022-08-04T03:01:30;11.23;;;5.53;;
14470;SDS011;7321;50.802;4.336;2022-08-04T03:13:03;7.30;;;5.20;;
14470;SDS011;7321;50.802;4.336;2022-08-04T03:30:00;7.72;;;4.82;;
14470;SDS011;7321;50.802;4.336;2022-08-04T03:33:00;8.52;;;4.45;;
14470;SDS011;7321;50.802;4.336;2022-08-04T04:06:37;10.13;;;5.38;;
14470;SDS011;7321;50.802;4.336;2022-08-04T04:12:11;8.25;;;5.00;;
14470;SDS011;7321;50.802;4.336;2022-08-04T04:20:53;10.27;;;4.88;;
14470;SDS011;7321;50.802;4.336;2022-08-04T04:26:55;10.15;;;5.20;;
14470;SDS011;7321;50.802;4.336;2022-08-04T04:30:06;8.95;;;5.15;;
14470;SDS011;7321;50.802;4.336;2022-08-04T04:33:18;9.50;;;4.85;;
14470;SDS011;7321;50.802;4.336;2022-08-04T04:38:40;8.90;;;5.00;;
14470;SDS011;7321;50.802;4.336;2022-08-04T04:49:28;9.45;;;5.53;;
14470;SDS011;7321;50.802;4.336;2022-08-04T04:52:29;9.20;;;5.45;;
14470;SDS011;7321;50.802;4.336;2022-08-04T04:55:32;13.10;;;5.25;;
14470;SDS011;7321;50.802;4.336;2022-08-04T04:58:04;13.20;;;5.43;;
14470;SDS011;7321;50.802;4.336;2022-08-04T05:00:46;12.73;;;5.38;;
14470;SDS011;7321;50.802;4.336;2022-08-04T05:17:24;7.05;;;5.60;;
14470;SDS011;7321;50.802;4.336;2022-08-04T05:20:05;10.00;;;6.15;;
14470;SDS011;7321;50.802;4.336;2022-08-04T05:22:47;13.98;;;6.05;;
14470;SDS011;7321;50.802;4.336;2022-08-04T05:30:35;11.23;;;5.47;;
14470;SDS011;7321;50.802;4.336;2022-08-04T05:33:12;11.50;;;5.25;;
14470;SDS011;7321;50.802;4.336;2022-08-04T05:35:51;11.38;;;5.90;;
14470;SDS011;7321;50.802;4.336;2022-08-04T05:38:22;8.30;;;5.47;;
14470;SDS011;7321;50.802;4.336;2022-08-04T05:40:53;8.52;;;5.05;;
14470;SDS011;7321;50.802;4.336;2022-08-04T05:43:21;12.77;;;6.20;;
14470;SDS011;7321;50.802;4.336;2022-08-04T05:45:48;11.25;;;5.70;;
14470;SDS011;7321;50.802;4.336;2022-08-04T05:48:15;16.17;;;5.10;;
14470;SDS011;7321;50.802;4.336;2022-08-04T05:50:42;12.90;;;6.03;;
14470;SDS011;7321;50.802;4.336;2022-08-04T05:53:10;10.02;;;4.93;;
14470;SDS011;7321;50.802;4.336;2022-08-04T05:55:38;11.45;;;5.10;;
14470;SDS011;7321;50.802;4.336;2022-08-04T05:58:04;13.75;;;5.70;;
14470;SDS011;7321;50.802;4.336;2022-08-04T06:00:31;11.55;;;5.07;;
14470;SDS011;7321;50.802;4.336;2022-08-04T06:02:59;10.25;;;4.90;;
14470;SDS011;7321;50.802;4.336;2022-08-04T06:05:26;10.48;;;5.35;;
14470;SDS011;7321;50.802;4.336;2022-08-04T06:07:53;14.25;;;6.20;;
14470;SDS011;7321;50.802;4.336;2022-08-04T06:10:19;12.75;;;5.45;;
14470;SDS011;7321;50.802;4.336;2022-08-04T06:12:46;10.63;;;5.28;;
14470;SDS011;7321;50.802;4.336;2022-08-04T06:15:20;10.52;;;4.85;;
14470;SDS011;7321;50.802;4.336;2022-08-04T06:17:48;12.48;;;6.05;;
14470;SDS011;7321;50.802;4.336;2022-08-04T06:20:19;10.48;;;5.78;;
14470;SDS011;7321;50.802;4.336;2022-08-04T06:22:49;8.63;;;5.22;;
14470;SDS011;7321;50.802;4.336;2022-08-04T06:25:20;11.63;;;5.70;;
14470;SDS011;7321;50.802;4.336;2022-08-04T06:27:48;11.25;;;5.97;;
14470;SDS011;7321;50.802;4.336;2022-08-04T06:30:15;12.32;;;6.15;;
14470;SDS011;7321;50.802;4.336;2022-08-04T06:32:50;12.38;;;5.80;;
14470;SDS011;7321;50.802;4.336;2022-08-04T06:35:21;11.05;;;5.63;;
14470;SDS011;7321;50.802;4.336;2022-08-04T06:37:50;11.93;;;5.90;;
14470;SDS011;7321;50.802;4.336;2022-08-04T06:40:21;14.27;;;5.50;;
14470;SDS011;7321;50.802;4.336;2022-08-04T06:42:49;10.88;;;5.35;;
14470;SDS011;7321;50.802;4.336;2022-08-04T06:45:15;10.35;;;5.40;;
14470;SDS011;7321;50.802;4.336;2022-08-04T06:47:43;9.98;;;6.10;;
14470;SDS011;7321;50.802;4.336;2022-08-04T06:50:10;9.40;;;6.18;;
14470;SDS011;7321;50.802;4.336;2022-08-04T06:52:37;12.55;;;5.57;;
14470;SDS011;7321;50.802;4.336;2022-08-04T06:55:05;9.98;;;5.60;;
14470;SDS011;7321;50.802;4.336;2022-08-04T06:57:33;12.82;;;5.03;;
14470;SDS011;7321;50.802;4.336;2022-08-04T07:00:02;13.63;;;5.72;;
14470;SDS011;7321;50.802;4.336;2022-08-04T07:02:31;13.02;;;6.18;;
14470;SDS011;7321;50.802;4.336;2022-08-04T07:05:04;8.85;;;5.28;;
14470;SDS011;7321;50.802;4.336;2022-08-04T07:07:31;9.85;;;5.55;;
14470;SDS011;7321;50.802;4.336;2022-08-04T07:09:58;10.55;;;5.47;;
14470;SDS011;7321;50.802;4.336;2022-08-04T07:12:25;8.45;;;4.72;;
14470;SDS011;7321;50.802;4.336;2022-08-04T07:14:52;9.55;;;5.30;;
14470;SDS011;7321;50.802;4.336;2022-08-04T07:17:18;9.88;;;5.32;;
14470;SDS011;7321;50.802;4.336;2022-08-04T07:19:45;10.02;;;4.75;;
14470;SDS011;7321;50.802;4.336;2022-08-04T07:22:11;6.78;;;4.63;;
14470;SDS011;7321;50.802;4.336;2022-08-04T07:24:40;9.90;;;4.95;;
14470;SDS011;7321;50.802;4.336;2022-08-04T07:27:06;11.30;;;4.90;;
14470;SDS011;7321;50.802;4.336;2022-08-04T07:29:35;8.43;;;4.30;;
14470;SDS011;7321;50.802;4.336;2022-08-04T07:32:02;9.10;;;4.38;;
14470;SDS011;7321;50.802;4.336;2022-08-04T07:34:29;10.85;;;4.65;;
14470;SDS011;7321;50.802;4.336;2022-08-04T07:36:57;9.65;;;4.65;;
14470;SDS011;7321;50.802;4.336;2022-08-04T07:39:25;11.02;;;4.90;;
14470;SDS011;7321;50.802;4.336;2022-08-04T07:41:52;9.75;;;4.35;;
14470;SDS011;7321;50.802;4.336;2022-08-04T07:44:21;11.15;;;4.35;;
14470;SDS011;7321;50.802;4.336;2022-08-04T07:46:47;10.48;;;4.95;;
14470;SDS011;7321;50.802;4.336;2022-08-04T07:49:13;10.52;;;4.63;;
14470;SDS011;7321;50.802;4.336;2022-08-04T07:51:42;13.35;;;5.82;;
14470;SDS011;7321;50.802;4.336;2022-08-04T07:54:08;8.55;;;4.30;;
14470;SDS011;7321;50.802;4.336;2022-08-04T07:56:36;7.47;;;4.30;;
14470;SDS011;7321;50.802;4.336;2022-08-04T07:59:06;8.73;;;4.78;;
14470;SDS011;7321;50.802;4.336;2022-08-04T08:01:33;7.63;;;4.45;;
14470;SDS011;7321;50.802;4.336;2022-08-04T08:04:00;7.57;;;4.40;;
14470;SDS011;7321;50.802;4.336;2022-08-04T08:06:27;10.20;;;5.20;;
14470;SDS011;7321;50.802;4.336;2022-08-04T08:08:57;9.40;;;4.82;;
14470;SDS011;7321;50.802;4.336;2022-08-04T08:11:25;7.53;;;4.70;;
14470;SDS011;7321;50.802;4.336;2022-08-04T08:13:52;11.43;;;5.22;;
14470;SDS011;7321;50.802;4.336;2022-08-04T08:16:17;9.10;;;5.28;;
14470;SDS011;7321;50.802;4.336;2022-08-04T08:18:45;11.95;;;5.43;;
14470;SDS011;7321;50.802;4.336;2022-08-04T08:21:11;10.35;;;5.78;;
14470;SDS011;7321;50.802;4.336;2022-08-04T08:23:37;7.90;;;5.00;;
14470;SDS011;7321;50.802;4.336;2022-08-04T08:26:05;10.43;;;5.88;;
14470;SDS011;7321;50.802;4.336;2022-08-04T08:28:33;10.05;;;6.15;;
14470;SDS011;7321;50.802;4.336;2022-08-04T08:30:59;10.65;;;6.35;;
14470;SDS011;7321;50.802;4.336;2022-08-04T08:33:35;11.80;;;6.32;;
14470;SDS011;7321;50.802;4.336;2022-08-04T08:50:30;12.75;;;7.13;;
14470;SDS011;7321;50.802;4.336;2022-08-04T08:56:01;12.07;;;6.57;;
14470;SDS011;7321;50.802;4.336;2022-08-04T08:58:34;11.95;;;6.13;;
14470;SDS011;7321;50.802;4.336;2022-08-04T09:04:12;13.90;;;7.95;;
14470;SDS011;7321;50.802;4.336;2022-08-04T09:06:49;11.70;;;6.53;;
14470;SDS011;7321;50.802;4.336;2022-08-04T09:12:36;9.80;;;6.63;;
14470;SDS011;7321;50.802;4.336;2022-08-04T09:18:02;9.25;;;7.78;;
14470;SDS011;7321;50.802;4.336;2022-08-04T09:20:53;14.25;;;8.05;;
14470;SDS011;7321;50.802;4.336;2022-08-04T09:23:29;11.95;;;7.82;;
14470;SDS011;7321;50.802;4.336;2022-08-04T09:26:17;12.90;;;7.90;;
14470;SDS011;7321;50.802;4.336;2022-08-04T09:41:02;13.18;;;7.88;;
14470;SDS011;7321;50.802;4.336;2022-08-04T09:43:48;15.13;;;9.00;;
14470;SDS011;7321;50.802;4.336;2022-08-04T09:46:55;17.35;;;10.02;;
14470;SDS011;7321;50.802;4.336;2022-08-04T09:49:45;15.93;;;10.20;;
14470;SDS011;7321;50.802;4.336;2022-08-04T10:00:17;17.42;;;10.10;;
14470;SDS011;7321;50.802;4.336;2022-08-04T10:02:49;16.08;;;11.32;;
14470;SDS011;7321;50.802;4.336;2022-08-04T10:05:21;16.13;;;11.23;;
14470;SDS011;7321;50.802;4.336;2022-08-04T10:07:54;14.52;;;10.10;;
14470;SDS011;7321;50.802;4.336;2022-08-04T10:10:32;13.70;;;10.30;;
14470;SDS011;7321;50.802;4.336;2022-08-04T10:15:39;14.15;;;10.77;;
14470;SDS011;7321;50.802;4.336;2022-08-04T10:21:10;17.05;;;13.35;;
14470;SDS011;7321;50.802;4.336;2022-08-04T10:23:57;15.77;;;12.43;;
14470;SDS011;7321;50.802;4.336;2022-08-04T10:29:17;17.40;;;13.48;;
14470;SDS011;7321;50.802;4.336;2022-08-04T10:31:59;18.45;;;13.73;;
14470;SDS011;7321;50.802;4.336;2022-08-04T10:35:28;17.90;;;14.63;;
14470;SDS011;7321;50.802;4.336;2022-08-04T10:40:11;18.95;;;15.63;;
14470;SDS011;7321;50.802;4.336;2022-08-04T10:46:06;22.08;;;16.73;;
14470;SDS011;7321;50.802;4.336;2022-08-04T10:49:12;21.00;;;16.45;;
14470;SDS011;7321;50.802;4.336;2022-08-04T10:51:54;23.05;;;17.58;;
14470;SDS011;7321;50.802;4.336;2022-08-04T10:54:36;21.85;;;17.05;;
14470;SDS011;7321;50.802;4.336;2022-08-04T10:57:13;22.38;;;15.82;;
14470;SDS011;7321;50.802;4.336;2022-08-04T11:02:51;19.92;;;15.98;;
14470;SDS011;7321;50.802;4.336;2022-08-04T11:05:55;23.35;;;17.02;;
14470;SDS011;7321;50.802;4.336;2022-08-04T11:08:38;18.13;;;14.80;;
14470;SDS011;7321;50.802;4.336;2022-08-04T11:11:14;21.52;;;16.88;;
14470;SDS011;7321;50.802;4.336;2022-08-04T11:14:04;18.05;;;15.13;;
14470;SDS011;7321;50.802;4.336;2022-08-04T11:20:20;21.35;;;16.75;;
14470;SDS011;7321;50.802;4.336;2022-08-04T11:22:38;19.00;;;16.27;;
14470;SDS011;7321;50.802;4.336;2022-08-04T11:25:18;19.75;;;15.98;;
14470;SDS011;7321;50.802;4.336;2022-08-04T11:36:01;17.55;;;14.55;;
14470;SDS011;7321;50.802;4.336;2022-08-04T11:38:41;18.27;;;15.50;;
14470;SDS011;7321;50.802;4.336;2022-08-04T11:41:14;18.52;;;16.60;;
14470;SDS011;7321;50.802;4.336;2022-08-04T11:43:53;16.30;;;14.52;;
14470;SDS011;7321;50.802;4.336;2022-08-04T11:46:22;16.52;;;14.75;;
14470;SDS011;7321;50.802;4.336;2022-08-04T11:49:04;16.20;;;13.93;;
14470;SDS011;7321;50.802;4.336;2022-08-04T11:51:35;17.05;;;13.52;;
14470;SDS011;7321;50.802;4.336;2022-08-04T11:54:02;15.85;;;13.23;;
14470;SDS011;7321;50.802;4.336;2022-08-04T11:56:29;15.85;;;11.80;;
14470;SDS011;7321;50.802;4.336;2022-08-04T11:58:58;15.13;;;12.48;;
14470;SDS011;7321;50.802;4.336;2022-08-04T12:10:19;12.07;;;10.82;;
14470;SDS011;7321;50.802;4.336;2022-08-04T12:13:00;11.48;;;9.48;;
14470;SDS011;7321;50.802;4.336;2022-08-04T12:15:50;10.15;;;8.40;;
14470;SDS011;7321;50.802;4.336;2022-08-04T12:21:00;11.35;;;8.23;;
14470;SDS011;7321;50.802;4.336;2022-08-04T12:23:35;8.77;;;7.70;;
14470;SDS011;7321;50.802;4.336;2022-08-04T12:26:04;9.57;;;8.20;;
14470;SDS011;7321;50.802;4.336;2022-08-04T12:28:33;14.30;;;10.05;;
14470;SDS011;7321;50.802;4.336;2022-08-04T12:31:04;13.55;;;10.27;;
14470;SDS011;7321;50.802;4.336;2022-08-04T12:33:39;10.27;;;9.27;;
14470;SDS011;7321;50.802;4.336;2022-08-04T12:36:26;13.45;;;10.43;;
14470;SDS011;7321;50.802;4.336;2022-08-04T12:39:19;9.57;;;8.70;;
14470;SDS011;7321;50.802;4.336;2022-08-04T12:41:51;10.50;;;9.40;;
14470;SDS011;7321;50.802;4.336;2022-08-04T12:44:40;10.10;;;9.05;;
14470;SDS011;7321;50.802;4.336;2022-08-04T12:47:09;9.43;;;8.00;;
14470;SDS011;7321;50.802;4.336;2022-08-04T12:49:36;9.52;;;7.95;;
14470;SDS011;7321;50.802;4.336;2022-08-04T12:52:06;11.55;;;8.50;;
14470;SDS011;7321;50.802;4.336;2022-08-04T12:54:33;10.85;;;8.85;;
14470;SDS011;7321;50.802;4.336;2022-08-04T12:57:03;10.20;;;9.10;;
14470;SDS011;7321;50.802;4.336;2022-08-04T12:59:38;12.07;;;9.43;;
14470;SDS011;7321;50.802;4.336;2022-08-04T13:02:11;10.23;;;8.32;;
14470;SDS011;7321;50.802;4.336;2022-08-04T13:04:58;14.18;;;9.30;;
14470;SDS011;7321;50.802;4.336;2022-08-04T13:07:27;12.32;;;7.70;;
14470;SDS011;7321;50.802;4.336;2022-08-04T13:10:09;12.07;;;7.63;;
14470;SDS011;7321;50.802;4.336;2022-08-04T13:12:41;9.63;;;7.82;;
14470;SDS011;7321;50.802;4.336;2022-08-04T13:15:16;9.10;;;6.63;;
14470;SDS011;7321;50.802;4.336;2022-08-04T13:17:59;11.02;;;7.93;;
14470;SDS011;7321;50.802;4.336;2022-08-04T13:20:34;10.85;;;8.38;;
14470;SDS011;7321;50.802;4.336;2022-08-04T13:23:11;9.18;;;7.28;;
14470;SDS011;7321;50.802;4.336;2022-08-04T13:25:41;8.10;;;7.32;;
14470;SDS011;7321;50.802;4.336;2022-08-04T13:28:14;9.73;;;7.65;;
14470;SDS011;7321;50.802;4.336;2022-08-04T13:30:47;8.00;;;6.47;;
14470;SDS011;7321;50.802;4.336;2022-08-04T13:33:30;9.15;;;6.50;;
14470;SDS011;7321;50.802;4.336;2022-08-04T13:35:57;8.65;;;6.03;;
14470;SDS011;7321;50.802;4.336;2022-08-04T13:38:25;6.25;;;5.70;;
14470;SDS011;7321;50.802;4.336;2022-08-04T13:40:52;8.88;;;6.68;;
14470;SDS011;7321;50.802;4.336;2022-08-04T13:43:29;8.98;;;6.60;;
14470;SDS011;7321;50.802;4.336;2022-08-04T13:46:07;7.72;;;7.03;;
14470;SDS011;7321;50.802;4.336;2022-08-04T13:48:39;7.82;;;6.53;;
14470;SDS011;7321;50.802;4.336;2022-08-04T13:51:08;9.93;;;7.00;;
14470;SDS011;7321;50.802;4.336;2022-08-04T13:53:36;7.65;;;6.35;;
14470;SDS011;7321;50.802;4.336;2022-08-04T13:56:06;7.82;;;7.03;;
14470;SDS011;7321;50.802;4.336;2022-08-04T13:58:37;7.07;;;6.38;;
14470;SDS011;7321;50.802;4.336;2022-08-04T14:01:19;9.32;;;8.23;;
14470;SDS011;7321;50.802;4.336;2022-08-04T14:04:36;7.97;;;7.15;;
14470;SDS011;7321;50.802;4.336;2022-08-04T14:06:43;7.80;;;5.55;;
14470;SDS011;7321;50.802;4.336;2022-08-04T14:09:14;7.53;;;6.53;;
14470;SDS011;7321;50.802;4.336;2022-08-04T14:11:46;7.60;;;6.90;;
14470;SDS011;7321;50.802;4.336;2022-08-04T14:14:21;7.95;;;5.82;;
14470;SDS011;7321;50.802;4.336;2022-08-04T14:17:10;7.28;;;4.15;;
14470;SDS011;7321;50.802;4.336;2022-08-04T14:19:49;4.55;;;4.03;;
14470;SDS011;7321;50.802;4.336;2022-08-04T14:24:55;5.63;;;5.22;;
14470;SDS011;7321;50.802;4.336;2022-08-04T14:27:27;7.18;;;6.25;;
14470;SDS011;7321;50.802;4.336;2022-08-04T14:29:53;7.45;;;5.35;;
14470;SDS011;7321;50.802;4.336;2022-08-04T14:32:19;8.30;;;6.35;;
14470;SDS011;7321;50.802;4.336;2022-08-04T14:34:46;7.55;;;6.95;;
14470;SDS011;7321;50.802;4.336;2022-08-04T14:37:12;9.52;;;8.52;;
14470;SDS011;7321;50.802;4.336;2022-08-04T14:39:43;10.70;;;7.47;;
14470;SDS011;7321;50.802;4.336;2022-08-04T14:42:13;9.48;;;8.13;;
14470;SDS011;7321;50.802;4.336;2022-08-04T14:44:56;8.55;;;7.68;;
14470;SDS011;7321;50.802;4.336;2022-08-04T14:47:40;8.32;;;7.50;;
14470;SDS011;7321;50.802;4.336;2022-08-04T14:50:08;9.98;;;8.98;;
14470;SDS011;7321;50.802;4.336;2022-08-04T14:52:35;8.25;;;7.45;;
14470;SDS011;7321;50.802;4.336;2022-08-04T14:55:17;8.35;;;7.53;;
14470;SDS011;7321;50.802;4.336;2022-08-04T14:57:46;7.40;;;6.78;;
14470;SDS011;7321;50.802;4.336;2022-08-04T15:00:21;8.00;;;7.35;;
14470;SDS011;7321;50.802;4.336;2022-08-04T15:02:55;8.73;;;7.85;;
14470;SDS011;7321;50.802;4.336;2022-08-04T15:05:25;8.45;;;7.70;;
14470;SDS011;7321;50.802;4.336;2022-08-04T15:07:54;8.30;;;7.50;;
14470;SDS011;7321;50.802;4.336;2022-08-04T15:10:20;7.85;;;7.05;;
14470;SDS011;7321;50.802;4.336;2022-08-04T15:12:45;8.40;;;7.60;;
14470;SDS011;7321;50.802;4.336;2022-08-04T15:15:12;9.07;;;7.18;;
14470;SDS011;7321;50.802;4.336;2022-08-04T15:17:38;9.95;;;7.57;;
14470;SDS011;7321;50.802;4.336;2022-08-04T15:20:19;8.50;;;7.60;;
14470;SDS011;7321;50.802;4.336;2022-08-04T15:22:46;7.28;;;5.85;;
14470;SDS011;7321;50.802;4.336;2022-08-04T15:25:12;8.55;;;6.78;;
14470;SDS011;7321;50.802;4.336;2022-08-04T15:27:39;9.85;;;5.78;;
14470;SDS011;7321;50.802;4.336;2022-08-04T15:30:09;6.45;;;4.57;;
14470;SDS011;7321;50.802;4.336;2022-08-04T15:32:46;4.43;;;4.03;;
14470;SDS011;7321;50.802;4.336;2022-08-04T15:35:22;5.90;;;4.53;;
14470;SDS011;7321;50.802;4.336;2022-08-04T15:40:38;7.10;;;5.70;;
14470;SDS011;7321;50.802;4.336;2022-08-04T15:45:57;6.18;;;4.50;;
14470;SDS011;7321;50.802;4.336;2022-08-04T15:48:26;4.90;;;4.47;;
14470;SDS011;7321;50.802;4.336;2022-08-04T15:53:29;5.28;;;4.75;;
14470;SDS011;7321;50.802;4.336;2022-08-04T15:55:56;6.65;;;4.55;;
14470;SDS011;7321;50.802;4.336;2022-08-04T15:58:22;6.80;;;5.10;;
14470;SDS011;7321;50.802;4.336;2022-08-04T16:06:44;5.72;;;4.70;;
14470;SDS011;7321;50.802;4.336;2022-08-04T16:16:26;6.00;;;4.90;;
14470;SDS011;7321;50.802;4.336;2022-08-04T16:18:52;5.32;;;4.82;;
14470;SDS011;7321;50.802;4.336;2022-08-04T16:21:22;4.28;;;3.88;;
14470;SDS011;7321;50.802;4.336;2022-08-04T16:23:54;9.25;;;5.47;;
14470;SDS011;7321;50.802;4.336;2022-08-04T16:29:03;6.63;;;4.03;;
14470;SDS011;7321;50.802;4.336;2022-08-04T16:34:36;5.35;;;3.67;;
14470;SDS011;7321;50.802;4.336;2022-08-04T16:37:07;6.15;;;3.60;;
14470;SDS011;7321;50.802;4.336;2022-08-04T16:39:35;7.40;;;3.97;;
14470;SDS011;7321;50.802;4.336;2022-08-04T16:44:57;6.13;;;3.72;;
14470;SDS011;7321;50.802;4.336;2022-08-04T16:52:41;8.23;;;4.03;;
14470;SDS011;7321;50.802;4.336;2022-08-04T16:55:13;7.57;;;3.90;;
14470;SDS011;7321;50.802;4.336;2022-08-04T16:57:40;6.05;;;3.50;;
14470;SDS011;7321;50.802;4.336;2022-08-04T17:00:06;5.28;;;3.60;;
14470;SDS011;7321;50.802;4.336;2022-08-04T17:02:35;5.55;;;3.95;;
14470;SDS011;7321;50.802;4.336;2022-08-04T17:05:35;4.45;;;3.60;;
14470;SDS011;7321;50.802;4.336;2022-08-04T17:08:05;4.78;;;3.60;;
14470;SDS011;7321;50.802;4.336;2022-08-04T17:10:42;6.05;;;3.60;;
14470;SDS011;7321;50.802;4.336;2022-08-04T17:13:28;6.82;;;3.60;;
14470;SDS011;7321;50.802;4.336;2022-08-04T17:16:00;4.25;;;3.33;;
14470;SDS011;7321;50.802;4.336;2022-08-04T17:18:31;5.90;;;3.63;;
14470;SDS011;7321;50.802;4.336;2022-08-04T17:21:10;5.68;;;3.60;;
14470;SDS011;7321;50.802;4.336;2022-08-04T17:23:47;7.03;;;3.50;;
14470;SDS011;7321;50.802;4.336;2022-08-04T17:26:17;5.05;;;3.50;;
14470;SDS011;7321;50.802;4.336;2022-08-04T17:28:48;5.05;;;3.40;;
14470;SDS011;7321;50.802;4.336;2022-08-04T17:31:22;4.75;;;3.42;;
14470;SDS011;7321;50.802;4.336;2022-08-04T17:33:53;6.85;;;3.33;;
14470;SDS011;7321;50.802;4.336;2022-08-04T17:36:30;5.82;;;3.35;;
14470;SDS011;7321;50.802;4.336;2022-08-04T17:38:57;5.60;;;3.40;;
14470;SDS011;7321;50.802;4.336;2022-08-04T17:41:25;5.88;;;3.30;;
14470;SDS011;7321;50.802;4.336;2022-08-04T17:43:54;4.07;;;3.05;;
14470;SDS011;7321;50.802;4.336;2022-08-04T17:54:00;6.45;;;3.00;;
14470;SDS011;7321;50.802;4.336;2022-08-04T18:01:44;4.03;;;3.30;;
14470;SDS011;7321;50.802;4.336;2022-08-04T18:06:58;4.30;;;3.20;;
14470;SDS011;7321;50.802;4.336;2022-08-04T18:09:26;6.47;;;3.58;;
14470;SDS011;7321;50.802;4.336;2022-08-04T18:11:59;4.93;;;3.30;;
14470;SDS011;7321;50.802;4.336;2022-08-04T18:17:13;7.13;;;3.90;;
14470;SDS011;7321;50.802;4.336;2022-08-04T18:19:49;7.47;;;3.85;;
14470;SDS011;7321;50.802;4.336;2022-08-04T18:22:16;7.75;;;3.42;;
14470;SDS011;7321;50.802;4.336;2022-08-04T18:24:46;3.67;;;3.17;;
14470;SDS011;7321;50.802;4.336;2022-08-04T18:27:12;6.15;;;3.22;;
14470;SDS011;7321;50.802;4.336;2022-08-04T18:29:38;6.50;;;3.42;;
14470;SDS011;7321;50.802;4.336;2022-08-04T18:32:04;4.70;;;2.75;;
14470;SDS011;7321;50.802;4.336;2022-08-04T18:34:31;3.50;;;3.00;;
14470;SDS011;7321;50.802;4.336;2022-08-04T18:36:56;5.25;;;3.03;;
14470;SDS011;7321;50.802;4.336;2022-08-04T18:39:22;6.57;;;3.25;;
14470;SDS011;7321;50.802;4.336;2022-08-04T18:41:49;5.57;;;2.95;;
14470;SDS011;7321;50.802;4.336;2022-08-04T18:44:22;6.88;;;3.33;;
14470;SDS011;7321;50.802;4.336;2022-08-04T18:46:50;5.97;;;3.30;;
14470;SDS011;7321;50.802;4.336;2022-08-04T18:49:17;4.10;;;2.67;;
14470;SDS011;7321;50.802;4.336;2022-08-04T18:51:52;4.80;;;3.20;;
14470;SDS011;7321;50.802;4.336;2022-08-04T18:54:22;5.15;;;2.90;;
14470;SDS011;7321;50.802;4.336;2022-08-04T18:56:54;4.90;;;3.25;;
14470;SDS011;7321;50.802;4.336;2022-08-04T18:59:20;4.40;;;2.90;;
14470;SDS011;7321;50.802;4.336;2022-08-04T19:01:46;7.47;;;4.00;;
14470;SDS011;7321;50.802;4.336;2022-08-04T19:04:12;6.30;;;3.20;;
14470;SDS011;7321;50.802;4.336;2022-08-04T19:06:39;8.98;;;4.03;;
14470;SDS011;7321;50.802;4.336;2022-08-04T19:09:06;6.72;;;3.50;;
14470;SDS011;7321;50.802;4.336;2022-08-04T19:11:32;8.35;;;4.00;;
14470;SDS011;7321;50.802;4.336;2022-08-04T19:13:59;8.60;;;5.30;;
14470;SDS011;7321;50.802;4.336;2022-08-04T19:16:29;7.30;;;5.15;;
14470;SDS011;7321;50.802;4.336;2022-08-04T19:18:59;6.97;;;3.90;;
14470;SDS011;7321;50.802;4.336;2022-08-04T19:21:26;4.78;;;4.07;;
14470;SDS011;7321;50.802;4.336;2022-08-04T19:23:56;5.30;;;4.60;;
14470;SDS011;7321;50.802;4.336;2022-08-04T19:26:22;6.78;;;4.78;;
14470;SDS011;7321;50.802;4.336;2022-08-04T19:28:50;6.88;;;4.55;;
14470;SDS011;7321;50.802;4.336;2022-08-04T19:31:17;7.70;;;4.93;;
14470;SDS011;7321;50.802;4.336;2022-08-04T19:33:43;6.25;;;4.63;;
14470;SDS011;7321;50.802;4.336;2022-08-04T19:36:10;8.43;;;4.82;;
14470;SDS011;7321;50.802;4.336;2022-08-04T19:38:36;7.43;;;4.50;;
14470;SDS011;7321;50.802;4.336;2022-08-04T19:41:02;6.25;;;4.35;;
14470;SDS011;7321;50.802;4.336;2022-08-04T19:43:29;9.13;;;5.57;;
14470;SDS011;7321;50.802;4.336;2022-08-04T19:45:56;7.20;;;4.43;;
14470;SDS011;7321;50.802;4.336;2022-08-04T19:48:24;5.95;;;5.03;;
14470;SDS011;7321;50.802;4.336;2022-08-04T19:50:52;10.02;;;5.47;;
14470;SDS011;7321;50.802;4.336;2022-08-04T19:53:18;7.85;;;5.00;;
14470;SDS011;7321;50.802;4.336;2022-08-04T19:55:44;6.57;;;5.38;;
14470;SDS011;7321;50.802;4.336;2022-08-04T19:58:11;7.78;;;5.55;;
14470;SDS011;7321;50.802;4.336;2022-08-04T20:00:38;8.35;;;5.05;;
14470;SDS011;7321;50.802;4.336;2022-08-04T20:03:05;9.23;;;5.50;;
14470;SDS011;7321;50.802;4.336;2022-08-04T20:05:33;6.38;;;4.72;;
14470;SDS011;7321;50.802;4.336;2022-08-04T20:07:59;8.55;;;5.60;;